KMHS

Mount Shasta Airport

Mount Shasta, California, USA
METAR KMHS 191056Z AUTO 00000KT 10SM OVC011 03/03 A3033 RMK AO2 SLP300 T00330028
Observed Flight Rules
Dec-19 @ 10:56 UTC (43 minutes ago) Marginal Visual Flight Rules
Visibility Clouds
10 miles
  • Overcast at 1,100' AGL
Temperatures Readings
Current 3°C / 37°F
Dewpoint 3°C / 37°F
Humidity 100%
Altimeter 30.33" Hg
Pressure 1030 hPa
Elevation 1078
METAR KMHS 191056Z AUTO 00000KT 10SM OVC011 03/03 A3033 RMK AO2 SLP300 T00330028
Observed Flight Rules
Dec-19 @ 10:56 UTC
(43 minutes ago)
MVFR
Clouds
  • Overcast at 1,100' AGL
Temperature Dewpoint
3°C / 37°F 3°C / 37°F
Humidity Altimeter Pressure
100% 30.33" Hg 1030 hPa